Time;durP1;ratioP1;P1;durP2;ratioP2;P2;SDS_P1;SDS_P2;PMS_P1;PMS_P2;Temp;Humidity;BMP_temperature;BMP_pressure;BME280_temperature;BME280_humidity;BME280_pressure;Samples;Min_cycle;Max_cycle;Signal;HPM_P1;HPM_P2
2021/05/25 00:05:28;;;;;;;;;;;;;;;16.66;72.77;100702.59;5021988;28;20377;-84
2021/05/25 00:08:13;;;;;;;;;;;;;;;16.53;72.91;100697.53;5018774;28;19913;-82
2021/05/25 00:10:58;;;;;;;;;;;;;;;16.36;74.13;100703.38;5003605;28;20277;-82
2021/05/25 00:13:42;;;;;;;;;;;;;;;16.41;74.04;100709.41;5008598;28;19917;-83
2021/05/25 00:16:27;;;;;;;;;;;;;;;16.43;73.84;100709.06;5017190;28;20285;-84
2021/05/25 00:19:11;;;;;;;;;;;;;;;16.36;73.96;100714.34;5022582;28;19913;-84
2021/05/25 00:21:56;;;;;;;;;;;;;;;16.52;73.52;100706.91;5024687;28;19913;-85
2021/05/25 00:24:41;;;;;;;;;;;;;;;16.61;72.84;100702.88;5018023;28;19913;-85
2021/05/25 00:27:44;;;;;;;;;;;;;;;16.68;72.26;100694.81;5021316;28;20301;-82
2021/05/25 00:30:30;;;;;;;;;;;;;;;16.71;72.14;100704.25;5027725;28;19917;-82
2021/05/25 00:33:16;;;;;;;;;;;;;;;16.82;71.95;100708.06;5020375;28;19918;-83
2021/05/25 00:36:01;;;;;;;;;;;;;;;17.03;70.99;100711.31;5020242;28;19917;-83
2021/05/25 00:38:47;;;;;;;;;;;;;;;17.03;70.92;100711.31;5019996;28;19913;-85
2021/05/25 00:41:50;;;;;;;;;;;;;;;16.84;71.37;100704.97;5000980;28;19913;-83
2021/05/25 00:44:35;;;;;;;;;;;;;;;17.11;70.50;100701.28;5009849;28;19914;-84
2021/05/25 00:47:27;;;;;;;;;;;;;;;16.82;71.63;100701.78;5020283;28;19913;-83
2021/05/25 00:50:13;;;;;;;;;;;;;;;16.64;72.08;100699.41;5031206;28;19917;-85
2021/05/25 00:52:59;;;;;;;;;;;;;;;16.61;72.39;100694.63;5029179;28;19914;-84
2021/05/25 00:55:44;;;;;;;;;;;;;;;16.84;71.65;100699.47;5022916;28;19913;-84
2021/05/25 00:58:29;;;;;;;;;;;;;;;16.56;72.53;100692.13;5028904;28;19913;-84
2021/05/25 01:01:14;;;;;;;;;;;;;;;16.64;72.39;100704.91;5027607;28;19913;-85
2021/05/25 01:03:58;;;;;;;;;;;;;;;16.78;71.97;100698.94;5021291;28;19914;-84
2021/05/25 01:06:43;;;;;;;;;;;;;;;16.63;72.33;100703.31;5017045;28;19913;-83
2021/05/25 01:09:32;;;;;;;;;;;;;;;16.89;71.52;100710.19;5017188;28;20405;-84
2021/05/25 01:12:16;;;;;;;;;;;;;;;16.95;70.93;100698.56;5017598;28;19913;-83
2021/05/25 01:15:06;;;;;;;;;;;;;;;17.06;70.37;100702.34;5018629;28;19933;-84
2021/05/25 01:20:54;;;;;;;;;;;;;;;16.94;70.91;100705.22;5018088;28;19913;-82
2021/05/25 01:27:01;;;;;;;;;;;;;;;16.65;72.47;100714.75;5018108;28;19913;-83
2021/05/25 01:29:45;;;;;;;;;;;;;;;16.43;73.76;100711.78;5022466;28;19913;-83
2021/05/25 01:32:31;;;;;;;;;;;;;;;16.38;73.63;100706.56;5022735;28;19917;-82
2021/05/25 01:35:15;;;;;;;;;;;;;;;16.42;73.04;100711.00;5034872;22;20393;-80
2021/05/25 01:38:01;;;;;;;;;;;;;;;16.33;73.74;100709.59;5016086;28;20305;-84
2021/05/25 01:40:46;;;;;;;;;;;;;;;16.27;73.91;100698.88;5021090;28;19917;-82
2021/05/25 01:43:31;;;;;;;;;;;;;;;16.30;73.66;100696.59;5021419;28;19913;-82
2021/05/25 01:46:15;;;;;;;;;;;;;;;16.13;74.42;100700.47;5015569;28;19914;-82
2021/05/25 01:49:00;;;;;;;;;;;;;;;16.14;74.01;100691.09;5001294;28;20362;-84
2021/05/25 01:51:45;;;;;;;;;;;;;;;16.08;74.50;100681.50;5001578;28;20517;-83
2021/05/25 01:54:30;;;;;;;;;;;;;;;15.98;74.85;100682.84;5002419;28;20381;-84
2021/05/25 01:57:15;;;;;;;;;;;;;;;15.96;74.54;100671.41;5020680;28;19914;-81
2021/05/25 02:00:01;;;;;;;;;;;;;;;15.90;74.30;100675.56;5021451;28;19913;-82
2021/05/25 02:02:46;;;;;;;;;;;;;;;15.99;74.57;100675.41;5009286;28;19914;-84
2021/05/25 02:05:31;;;;;;;;;;;;;;;16.02;74.30;100675.50;4997605;28;19914;-82
2021/05/25 02:08:17;;;;;;;;;;;;;;;16.21;73.23;100670.09;5020367;28;19913;-83
2021/05/25 02:11:07;;;;;;;;;;;;;;;16.06;73.61;100670.09;5011582;28;19914;-82
2021/05/25 02:14:10;;;;;;;;;;;;;;;15.90;73.97;100675.56;5013974;28;19921;-83
2021/05/25 02:16:57;;;;;;;;;;;;;;;15.98;73.51;100679.28;5003045;28;19917;-84
2021/05/25 02:19:41;;;;;;;;;;;;;;;16.01;73.51;100676.63;5020569;28;19913;-84
2021/05/25 02:22:26;;;;;;;;;;;;;;;16.26;72.48;100682.75;5019748;28;19913;-84
2021/05/25 02:25:10;;;;;;;;;;;;;;;16.53;71.67;100695.59;5018175;28;19913;-84
2021/05/25 02:28:14;;;;;;;;;;;;;;;16.80;70.17;100704.09;5019676;28;19913;-84
2021/05/25 02:30:59;;;;;;;;;;;;;;;17.09;69.24;100689.84;5020490;28;19913;-84
2021/05/25 02:33:44;;;;;;;;;;;;;;;16.94;68.86;100687.94;5020390;28;19917;-84
2021/05/25 02:36:31;;;;;;;;;;;;;;;17.31;68.70;100689.16;5012967;28;19921;-84
2021/05/25 02:39:15;;;;;;;;;;;;;;;17.42;67.93;100689.38;5020264;28;19913;-81
2021/05/25 02:42:01;;;;;;;;;;;;;;;17.24;68.11;100685.44;5017524;28;19939;-84
2021/05/25 02:44:45;;;;;;;;;;;;;;;16.79;68.60;100694.25;5018385;28;19913;-83
2021/05/25 02:47:49;;;;;;;;;;;;;;;16.72;69.53;100677.59;5018950;28;19914;-82
2021/05/25 02:50:33;;;;;;;;;;;;;;;16.60;69.72;100676.59;5016451;28;20390;-82
2021/05/25 02:53:37;;;;;;;;;;;;;;;16.63;69.65;100667.63;5005060;28;19913;-82
2021/05/25 02:56:25;;;;;;;;;;;;;;;16.61;69.93;100666.38;4997205;28;19913;-82
2021/05/25 02:59:10;;;;;;;;;;;;;;;16.55;69.80;100667.78;5019705;28;19913;-83
2021/05/25 03:02:14;;;;;;;;;;;;;;;16.51;69.40;100664.94;5020049;28;19913;-83
2021/05/25 03:04:58;;;;;;;;;;;;;;;16.25;70.26;100657.25;5016647;28;19913;-84
2021/05/25 03:07:43;;;;;;;;;;;;;;;16.26;70.70;100663.53;5015632;28;19913;-84
2021/05/25 03:10:30;;;;;;;;;;;;;;;16.48;70.00;100662.13;4993667;28;19914;-82
2021/05/25 03:13:15;;;;;;;;;;;;;;;16.92;69.07;100666.31;5003069;28;20289;-84
2021/05/25 03:16:00;;;;;;;;;;;;;;;17.11;67.86;100679.28;5002901;28;20305;-83
2021/05/25 03:18:44;;;;;;;;;;;;;;;17.30;67.15;100682.06;5007765;28;19913;-84
2021/05/25 03:21:28;;;;;;;;;;;;;;;17.35;66.91;100689.22;5000051;28;19913;-84
2021/05/25 03:24:16;;;;;;;;;;;;;;;17.49;66.53;100692.25;4999876;28;19914;-83
2021/05/25 03:27:01;;;;;;;;;;;;;;;17.43;66.22;100693.69;5011968;28;20298;-84
2021/05/25 03:29:46;;;;;;;;;;;;;;;17.21;66.69;100683.44;5018926;28;20332;-83
2021/05/25 03:32:30;;;;;;;;;;;;;;;16.83;66.74;100687.69;5014576;28;19913;-84
2021/05/25 03:35:16;;;;;;;;;;;;;;;16.60;67.88;100686.78;5016609;28;19918;-83
2021/05/25 03:38:01;;;;;;;;;;;;;;;16.35;69.35;100685.34;5016961;28;19939;-84
2021/05/25 03:44:13;;;;;;;;;;;;;;;15.75;71.83;100685.34;4997877;28;20453;-84
2021/05/25 03:46:58;;;;;;;;;;;;;;;15.73;71.41;100676.69;5006500;28;19913;-83
2021/05/25 03:49:46;;;;;;;;;;;;;;;15.64;72.11;100678.81;5018693;28;19913;-82
2021/05/25 03:52:30;;;;;;;;;;;;;;;15.67;71.78;100680.84;4999927;28;19913;-83
2021/05/25 04:01:13;;;;;;;;;;;;;;;15.54;72.48;100697.69;5017747;28;19913;-81
2021/05/25 04:03:58;;;;;;;;;;;;;;;15.61;72.21;100690.44;5023359;28;20377;-84
2021/05/25 04:06:42;;;;;;;;;;;;;;;15.58;72.41;100695.84;5025821;28;19913;-84
2021/05/25 04:09:27;;;;;;;;;;;;;;;15.46;73.09;100693.09;5019263;28;19917;-85
2021/05/25 04:12:32;;;;;;;;;;;;;;;15.52;72.90;100702.72;4996812;28;19914;-82
2021/05/25 04:15:18;;;;;;;;;;;;;;;15.35;73.40;100696.34;5011001;28;19922;-83
2021/05/25 04:18:03;;;;;;;;;;;;;;;15.33;74.48;100695.91;5021235;28;19914;-82
2021/05/25 04:20:48;;;;;;;;;;;;;;;15.39;74.09;100704.66;5021570;28;19917;-83
2021/05/25 04:23:32;;;;;;;;;;;;;;;15.63;72.73;100703.81;5006770;28;19913;-83
2021/05/25 04:29:23;;;;;;;;;;;;;;;15.98;72.13;100703.97;5019304;28;20321;-84
2021/05/25 04:32:08;;;;;;;;;;;;;;;16.08;71.82;100701.53;5019255;28;19917;-84
2021/05/25 04:34:52;;;;;;;;;;;;;;;16.09;71.64;100702.31;5011606;28;20542;-82
2021/05/25 04:37:38;;;;;;;;;;;;;;;16.42;70.81;100696.47;5017789;28;20385;-82
2021/05/25 04:40:23;;;;;;;;;;;;;;;16.74;69.61;100703.56;5022037;28;20297;-83
2021/05/25 04:43:35;;;;;;;;;;;;;;;16.75;69.12;100699.69;5015412;28;19914;-83
2021/05/25 04:46:19;;;;;;;;;;;;;;;17.30;67.38;100708.75;4997534;28;19913;-85
2021/05/25 04:49:04;;;;;;;;;;;;;;;17.44;66.63;100711.78;5006652;28;19913;-83
2021/05/25 04:51:49;;;;;;;;;;;;;;;17.01;67.64;100721.06;5022298;28;19913;-82
2021/05/25 04:54:34;;;;;;;;;;;;;;;16.64;68.97;100715.09;5015154;28;19917;-83
2021/05/25 04:57:18;;;;;;;;;;;;;;;16.32;70.34;100713.47;5018622;28;20393;-84
2021/05/25 05:00:08;;;;;;;;;;;;;;;16.27;70.91;100726.31;5000540;28;19913;-80
2021/05/25 05:02:53;;;;;;;;;;;;;;;16.65;69.28;100727.69;5014069;28;19913;-82
2021/05/25 05:05:38;;;;;;;;;;;;;;;16.49;70.04;100732.34;5017081;28;19914;-82
2021/05/25 05:08:23;;;;;;;;;;;;;;;17.03;68.80;100729.72;5007809;28;20382;-84
2021/05/25 05:11:07;;;;;;;;;;;;;;;17.38;67.37;100736.00;5019430;28;19913;-81
2021/05/25 05:13:52;;;;;;;;;;;;;;;17.48;66.96;100727.19;5014429;28;19917;-85
2021/05/25 05:16:36;;;;;;;;;;;;;;;17.52;65.88;100724.53;5012319;28;19913;-84
2021/05/25 05:19:21;;;;;;;;;;;;;;;17.65;65.14;100731.50;5008986;28;19917;-85
2021/05/25 05:22:05;;;;;;;;;;;;;;;17.75;64.47;100728.16;5003510;28;19913;-83
2021/05/25 05:25:08;;;;;;;;;;;;;;;17.61;64.99;100738.09;5016216;28;19914;-83
2021/05/25 05:27:54;;;;;;;;;;;;;;;17.54;65.27;100741.44;5017469;28;19913;-83
2021/05/25 05:30:38;;;;;;;;;;;;;;;17.38;65.73;100737.97;5008638;28;19913;-85
2021/05/25 05:33:24;;;;;;;;;;;;;;;17.56;65.18;100743.84;5015460;28;19913;-84
2021/05/25 05:36:10;;;;;;;;;;;;;;;17.22;66.11;100742.75;4985615;28;19917;-83
2021/05/25 05:38:55;;;;;;;;;;;;;;;17.30;66.55;100758.22;5003662;28;19913;-83
2021/05/25 05:41:40;;;;;;;;;;;;;;;17.38;66.29;100759.94;5013526;28;19921;-84
2021/05/25 05:47:46;;;;;;;;;;;;;;;17.59;65.58;100759.59;5017013;28;19910;-84
2021/05/25 05:50:31;;;;;;;;;;;;;;;17.50;65.97;100757.88;5014237;28;20377;-83
2021/05/25 05:53:15;;;;;;;;;;;;;;;17.36;65.76;100756.78;5018684;28;19913;-85
2021/05/25 05:56:00;;;;;;;;;;;;;;;17.05;67.24;100761.22;5015879;28;19918;-84
2021/05/25 05:58:46;;;;;;;;;;;;;;;17.27;66.84;100762.47;5014784;28;20389;-84
2021/05/25 06:04:34;;;;;;;;;;;;;;;17.95;64.36;100768.25;5015389;28;19913;-81
2021/05/25 06:07:38;;;;;;;;;;;;;;;18.03;63.91;100765.66;5014631;28;19913;-84
2021/05/25 06:10:27;;;;;;;;;;;;;;;18.17;63.55;100774.97;5016917;28;20286;-82
2021/05/25 06:13:11;;;;;;;;;;;;;;;18.26;63.12;100774.72;5015401;28;19913;-82
2021/05/25 06:16:02;;;;;;;;;;;;;;;18.24;63.04;100779.78;5015900;28;20390;-83
2021/05/25 06:18:47;;;;;;;;;;;;;;;17.92;64.14;100780.00;5017046;28;19913;-84
2021/05/25 06:21:31;;;;;;;;;;;;;;;18.09;63.37;100778.72;5013095;28;19914;-84
2021/05/25 06:24:16;;;;;;;;;;;;;;;18.26;63.01;100785.75;5016852;28;19913;-84
2021/05/25 06:27:01;;;;;;;;;;;;;;;18.31;62.67;100790.94;5001703;28;19913;-84
2021/05/25 06:29:46;;;;;;;;;;;;;;;17.94;63.95;100787.88;5014113;28;19914;-85
2021/05/25 06:32:30;;;;;;;;;;;;;;;18.08;63.77;100792.88;5013775;28;19913;-83
2021/05/25 06:35:16;;;;;;;;;;;;;;;18.14;63.47;100788.66;5017190;28;19917;-84
2021/05/25 06:38:02;;;;;;;;;;;;;;;18.11;63.71;100794.91;5014645;28;19913;-84
2021/05/25 06:40:46;;;;;;;;;;;;;;;17.95;64.31;100794.97;5018834;28;19913;-84
2021/05/25 06:43:31;;;;;;;;;;;;;;;18.06;64.03;100792.44;5016985;28;19913;-85
2021/05/25 06:46:18;;;;;;;;;;;;;;;18.46;62.80;100792.78;5014083;28;19913;-85
2021/05/25 06:49:03;;;;;;;;;;;;;;;18.50;62.50;100792.84;5017747;28;19913;-84
2021/05/25 06:51:47;;;;;;;;;;;;;;;18.55;62.22;100789.81;5015020;28;19917;-83
2021/05/25 06:54:32;;;;;;;;;;;;;;;18.51;62.08;100794.44;5018215;28;19917;-83
2021/05/25 06:57:17;;;;;;;;;;;;;;;18.44;62.53;100783.31;5012834;28;19914;-84
2021/05/25 07:00:06;;;;;;;;;;;;;;;18.59;61.83;100785.97;5018370;28;20290;-84
2021/05/25 07:03:09;;;;;;;;;;;;;;;18.59;62.13;100788.72;5014671;28;19913;-86
2021/05/25 07:05:54;;;;;;;;;;;;;;;18.66;61.89;100801.81;4999993;28;19913;-85
2021/05/25 07:08:39;;;;;;;;;;;;;;;18.54;62.10;100797.28;5017102;28;19921;-85
2021/05/25 07:11:24;;;;;;;;;;;;;;;18.43;62.57;100804.56;5015274;28;19914;-87
2021/05/25 07:14:09;;;;;;;;;;;;;;;18.31;63.14;100812.97;5018583;28;19929;-84
2021/05/25 07:17:12;;;;;;;;;;;;;;;18.28;63.52;100819.22;5013089;28;19913;-86
2021/05/25 07:20:16;;;;;;;;;;;;;;;18.47;63.19;100815.63;5013580;28;19913;-85
2021/05/25 07:23:19;;;;;;;;;;;;;;;18.52;62.92;100821.63;5016242;28;19914;-86
2021/05/25 07:26:04;;;;;;;;;;;;;;;18.41;63.49;100817.88;5013500;28;19914;-82
2021/05/25 07:28:49;;;;;;;;;;;;;;;18.52;62.92;100824.38;5017612;28;19913;-83
2021/05/25 07:31:33;;;;;;;;;;;;;;;18.60;62.97;100822.56;4996223;28;19913;-85
2021/05/25 07:34:18;;;;;;;;;;;;;;;18.67;63.55;100826.25;4994068;28;20378;-85
2021/05/25 07:37:03;;;;;;;;;;;;;;;18.76;62.81;100820.50;5067713;23;20184;-93
2021/05/25 07:40:05;;;;;;;;;;;;;;;18.83;62.03;100822.59;5056723;28;19921;-94
2021/05/25 07:45:56;;;;;;;;;;;;;;;18.91;61.44;100816.81;5075763;28;20394;-92
2021/05/25 07:48:41;;;;;;;;;;;;;;;18.75;61.66;100819.69;5071575;28;19912;-91
2021/05/25 07:54:48;;;;;;;;;;;;;;;18.98;60.98;100819.69;5069805;28;19916;-91
2021/05/25 07:57:32;;;;;;;;;;;;;;;19.01;60.81;100829.19;5067383;28;19913;-91
2021/05/25 08:00:36;;;;;;;;;;;;;;;19.01;60.46;100820.91;5066441;28;19912;-91
2021/05/25 08:03:21;;;;;;;;;;;;;;;19.20;59.90;100820.81;5070003;28;20275;-91
2021/05/25 08:06:24;;;;;;;;;;;;;;;19.29;59.57;100821.38;5062730;28;20275;-91
2021/05/25 08:09:09;;;;;;;;;;;;;;;19.18;59.75;100820.41;5069443;28;19912;-91
2021/05/25 08:11:54;;;;;;;;;;;;;;;19.03;59.84;100816.63;5067491;28;19912;-91
2021/05/25 08:14:39;;;;;;;;;;;;;;;19.31;59.05;100820.97;5064758;28;19917;-90
2021/05/25 08:20:19;;;;;;;;;;;;;;;19.36;59.03;100835.25;5066515;28;19921;-91
2021/05/25 08:23:06;;;;;;;;;;;;;;;19.29;59.26;100831.59;5064323;28;19913;-91
2021/05/25 08:25:51;;;;;;;;;;;;;;;19.29;59.10;100831.59;5052487;28;20294;-90
2021/05/25 08:28:36;;;;;;;;;;;;;;;19.33;59.19;100837.94;5066746;28;19913;-91
2021/05/25 08:31:21;;;;;;;;;;;;;;;19.36;59.03;100835.25;5064044;28;19912;-91
2021/05/25 08:34:05;;;;;;;;;;;;;;;19.14;59.54;100831.38;5067973;28;20204;-91
2021/05/25 08:36:50;;;;;;;;;;;;;;;19.19;59.55;100836.59;5065434;28;19917;-90
2021/05/25 08:39:35;;;;;;;;;;;;;;;19.21;59.77;100845.25;5064873;28;19913;-91
2021/05/25 08:42:21;;;;;;;;;;;;;;;19.34;59.09;100837.59;5067935;28;19913;-89
2021/05/25 08:45:09;;;;;;;;;;;;;;;19.24;59.74;100832.72;5064516;28;19913;-89
2021/05/25 08:47:55;;;;;;;;;;;;;;;19.33;59.09;100827.72;5059342;28;20113;-89
2021/05/25 08:50:40;;;;;;;;;;;;;;;19.38;59.02;100832.91;5048563;28;20167;-91
2021/05/25 08:53:25;;;;;;;;;;;;;;;19.33;58.98;100835.19;5046747;28;19912;-89
2021/05/25 08:56:10;;;;;;;;;;;;;;;19.43;58.68;100835.34;5059126;28;19916;-89
2021/05/25 08:58:56;;;;;;;;;;;;;;;19.34;58.89;100828.50;5063427;28;20367;-89
2021/05/25 09:01:41;;;;;;;;;;;;;;;19.29;58.86;100829.63;5046828;28;19913;-90
2021/05/25 09:04:25;;;;;;;;;;;;;;;19.32;58.51;100828.88;5060988;28;19912;-91
2021/05/25 09:07:11;;;;;;;;;;;;;;;19.32;58.73;100830.84;5064282;28;19913;-90
2021/05/25 09:09:55;;;;;;;;;;;;;;;19.46;58.60;100823.59;5062628;28;19913;-90
2021/05/25 09:12:41;;;;;;;;;;;;;;;19.50;58.41;100835.50;5060890;28;19912;-90
2021/05/25 09:15:52;;;;;;;;;;;;;;;19.49;58.43;100828.38;5048693;28;19921;-90
2021/05/25 09:21:48;;;;;;;;;;;;;;;19.54;58.22;100841.84;5063790;28;20382;-91
2021/05/25 09:24:39;;;;;;;;;;;;;;;19.55;57.79;100831.63;5061904;28;19913;-91
2021/05/25 09:27:46;;;;;;;;;;;;;;;19.64;57.35;100837.66;5045173;28;19913;-92
2021/05/25 09:30:32;;;;;;;;;;;;;;;19.67;57.20;100833.34;5064320;28;19913;-90
2021/05/25 09:33:17;;;;;;;;;;;;;;;19.67;57.22;100834.13;5065409;28;19939;-90
2021/05/25 09:36:22;;;;;;;;;;;;;;;19.61;57.03;100833.66;5062544;28;20394;-89
2021/05/25 09:39:07;;;;;;;;;;;;;;;19.72;56.87;100831.06;5066634;28;19913;-89
2021/05/25 09:45:01;;;;;;;;;;;;;;;19.78;56.96;100837.03;5064121;28;19913;-91
2021/05/25 09:47:51;;;;;;;;;;;;;;;19.77;56.89;100838.19;5062307;28;19920;-89
2021/05/25 09:50:38;;;;;;;;;;;;;;;19.75;57.09;100840.56;5055110;28;19913;-90
2021/05/25 09:53:24;;;;;;;;;;;;;;;19.79;56.96;100838.63;5063928;28;19935;-90
2021/05/25 09:56:09;;;;;;;;;;;;;;;19.82;56.22;100837.88;5062753;28;20387;-90
2021/05/25 09:58:54;;;;;;;;;;;;;;;19.80;56.17;100840.22;5058995;28;19913;-90
2021/05/25 10:01:38;;;;;;;;;;;;;;;19.71;55.96;100836.97;5061860;28;19913;-90
2021/05/25 10:04:23;;;;;;;;;;;;;;;19.82;55.64;100838.66;5057337;28;19913;-89
2021/05/25 10:07:09;;;;;;;;;;;;;;;19.89;55.53;100843.50;5059157;28;19916;-89
2021/05/25 10:09:57;;;;;;;;;;;;;;;19.80;56.39;100843.00;5048689;28;19912;-90
2021/05/25 10:12:42;;;;;;;;;;;;;;;19.70;56.81;100846.41;5061986;28;19913;-89
2021/05/25 10:15:27;;;;;;;;;;;;;;;19.73;57.18;100851.16;5059683;28;19916;-89
2021/05/25 10:21:02;;;;;;;;;;;;;;;19.65;56.51;100842.00;5062170;28;19913;-89
2021/05/25 10:23:47;;;;;;;;;;;;;;;19.75;55.46;100846.06;5057984;28;19916;-88
2021/05/25 10:26:51;;;;;;;;;;;;;;;19.76;55.44;100842.91;5054509;28;20499;-89
2021/05/25 10:29:36;;;;;;;;;;;;;;;19.79;55.76;100844.16;5063459;28;19913;-88
2021/05/25 10:32:22;;;;;;;;;;;;;;;19.84;56.29;100852.09;5056964;28;19932;-86
2021/05/25 10:35:07;;;;;;;;;;;;;;;19.86;55.52;100858.81;5063813;28;19921;-87
2021/05/25 10:38:05;;;;;;;;;;;;;;;19.95;55.25;100851.09;5059302;28;20375;-89
2021/05/25 10:40:51;;;;;;;;;;;;;;;19.99;54.86;100860.19;5059166;28;19913;-89
2021/05/25 10:43:42;;;;;;;;;;;;;;;19.96;55.63;100858.16;5043849;28;19912;-86
2021/05/25 10:46:29;;;;;;;;;;;;;;;19.88;55.30;100859.25;5045819;28;19917;-91
2021/05/25 10:49:32;;;;;;;;;;;;;;;19.87;56.06;100859.63;5057207;28;19912;-91
2021/05/25 10:52:17;;;;;;;;;;;;;;;19.78;55.96;100848.06;5056114;28;19913;-90
2021/05/25 10:55:01;;;;;;;;;;;;;;;19.78;55.68;100856.34;5052404;28;20542;-90
2021/05/25 10:58:04;;;;;;;;;;;;;;;19.75;55.37;100854.34;5059959;28;19912;-89
2021/05/25 11:00:49;;;;;;;;;;;;;;;19.82;55.60;100852.47;5055968;28;19912;-88
2021/05/25 11:03:35;;;;;;;;;;;;;;;19.80;55.64;100851.28;5055878;28;19913;-92
2021/05/25 11:06:30;;;;;;;;;;;;;;;19.83;55.24;100854.06;5054537;28;19925;-92
2021/05/25 11:09:29;;;;;;;;;;;;;;;19.84;54.99;100838.31;5052735;28;20299;-91
2021/05/25 11:12:17;;;;;;;;;;;;;;;19.87;54.99;100849.38;5058256;28;20375;-92
2021/05/25 11:15:39;;;;;;;;;;;;;;;19.96;54.75;100846.34;5053034;28;19916;-92
2021/05/25 11:18:32;;;;;;;;;;;;;;;19.93;54.58;100841.56;5058686;28;19912;-92
2021/05/25 11:24:37;;;;;;;;;;;;;;;19.94;54.34;100840.41;5059586;28;20302;-91
2021/05/25 11:27:28;;;;;;;;;;;;;;;20.00;54.75;100825.91;5056242;28;19912;-92
2021/05/25 11:30:31;;;;;;;;;;;;;;;20.05;54.76;100833.06;5051549;28;19920;-92
2021/05/25 11:33:30;;;;;;;;;;;;;;;20.02;53.93;100831.03;5058208;28;19912;-91
2021/05/25 11:36:15;;;;;;;;;;;;;;;20.07;54.08;100827.94;5056818;28;19916;-91
2021/05/25 11:38:59;;;;;;;;;;;;;;;20.12;54.07;100829.56;5054949;28;20382;-91
2021/05/25 11:41:43;;;;;;;;;;;;;;;20.04;54.15;100825.94;5059627;28;19913;-91
2021/05/25 11:50:40;;;;;;;;;;;;;;;20.11;53.84;100831.56;5056114;28;19912;-91
2021/05/25 11:53:25;;;;;;;;;;;;;;;19.99;53.77;100832.59;5040289;28;19912;-91
2021/05/25 11:56:10;;;;;;;;;;;;;;;20.09;53.13;100820.09;5056923;28;19917;-91
2021/05/25 11:58:56;;;;;;;;;;;;;;;20.15;53.04;100826.88;5057108;28;19912;-91
2021/05/25 12:01:49;;;;;;;;;;;;;;;20.13;53.39;100826.44;5054614;28;19913;-91
2021/05/25 12:04:34;;;;;;;;;;;;;;;20.13;53.21;100823.66;5059101;28;19913;-91
2021/05/25 12:07:20;;;;;;;;;;;;;;;20.19;53.33;100813.88;5057193;28;19912;-91
2021/05/25 12:10:13;;;;;;;;;;;;;;;20.22;53.36;100815.88;5052687;28;19912;-91
2021/05/25 12:13:04;;;;;;;;;;;;;;;20.23;53.39;100819.44;5057133;28;20287;-92
2021/05/25 12:15:50;;;;;;;;;;;;;;;20.16;53.23;100817.41;5053269;28;19917;-92
2021/05/25 12:18:36;;;;;;;;;;;;;;;20.24;53.32;100810.78;5036536;28;19913;-91
2021/05/25 12:21:22;;;;;;;;;;;;;;;20.25;53.24;100803.28;5060601;28;19917;-91
2021/05/25 12:24:06;;;;;;;;;;;;;;;20.35;52.62;100794.34;5059406;28;20114;-92
2021/05/25 12:26:51;;;;;;;;;;;;;;;20.32;52.50;100790.38;5038352;28;19913;-92
2021/05/25 12:29:35;;;;;;;;;;;;;;;20.35;53.42;100788.84;5055119;28;19913;-92
2021/05/25 12:32:20;;;;;;;;;;;;;;;20.40;53.02;100782.97;5059523;28;19913;-91
2021/05/25 12:35:05;;;;;;;;;;;;;;;20.33;52.81;100788.41;5056915;28;19912;-91
2021/05/25 12:38:04;;;;;;;;;;;;;;;20.38;52.41;100779.78;5055913;28;19913;-92
2021/05/25 12:40:59;;;;;;;;;;;;;;;20.37;52.12;100770.69;5053265;28;19913;-92
2021/05/25 12:43:44;;;;;;;;;;;;;;;20.40;51.94;100778.22;5058891;28;19912;-91
2021/05/25 12:46:29;;;;;;;;;;;;;;;20.43;50.57;100771.94;5062058;28;19912;-92
2021/05/25 12:49:26;;;;;;;;;;;;;;;20.53;50.60;100764.91;5058050;28;20378;-91
2021/05/25 12:52:20;;;;;;;;;;;;;;;20.41;51.41;100771.53;5061683;28;20386;-91
2021/05/25 12:55:06;;;;;;;;;;;;;;;20.43;51.25;100754.56;5061759;28;20378;-91
2021/05/25 12:58:09;;;;;;;;;;;;;;;20.56;50.52;100758.66;5058244;28;19932;-92
2021/05/25 13:01:13;;;;;;;;;;;;;;;20.60;50.10;100756.69;5046817;28;19913;-92
2021/05/25 13:04:01;;;;;;;;;;;;;;;20.63;50.19;100757.91;5058568;28;19912;-91
2021/05/25 13:06:56;;;;;;;;;;;;;;;20.53;50.53;100755.84;5064216;28;19912;-91
2021/05/25 13:09:43;;;;;;;;;;;;;;;20.57;50.65;100754.69;5062234;28;19912;-92
2021/05/25 13:12:34;;;;;;;;;;;;;;;20.51;50.61;100739.66;5055782;28;20292;-91
2021/05/25 13:15:19;;;;;;;;;;;;;;;20.49;49.93;100748.31;5062406;28;19913;-91
2021/05/25 13:18:05;;;;;;;;;;;;;;;20.46;49.79;100743.56;5054836;28;19912;-91
2021/05/25 13:20:57;;;;;;;;;;;;;;;20.50;49.55;100749.13;5057237;28;19931;-92
2021/05/25 13:23:58;;;;;;;;;;;;;;;20.50;49.84;100746.34;5047374;28;19913;-92
2021/05/25 13:26:45;;;;;;;;;;;;;;;20.55;49.66;100739.69;5053297;28;19913;-92
2021/05/25 13:29:29;;;;;;;;;;;;;;;20.49;49.18;100742.78;5057770;28;20370;-94
2021/05/25 13:32:33;;;;;;;;;;;;;;;20.45;47.87;100736.44;5045731;28;19913;-92
2021/05/25 13:35:18;;;;;;;;;;;;;;;20.36;49.32;100727.69;5057064;28;19916;-91
2021/05/25 13:38:05;;;;;;;;;;;;;;;20.33;48.82;100720.16;5060681;28;19912;-92
2021/05/25 13:40:50;;;;;;;;;;;;;;;20.35;48.71;100728.88;5056770;28;19913;-92
2021/05/25 13:43:36;;;;;;;;;;;;;;;20.22;48.46;100738.56;5041047;28;20375;-92
2021/05/25 13:46:23;;;;;;;;;;;;;;;20.28;47.90;100717.72;5047070;28;19917;-92
2021/05/25 13:49:08;;;;;;;;;;;;;;;20.33;48.30;100725.69;5042361;28;19916;-92
2021/05/25 13:51:52;;;;;;;;;;;;;;;20.27;48.40;100724.41;5042405;28;19920;-93
2021/05/25 13:54:37;;;;;;;;;;;;;;;20.34;47.58;100721.75;5063903;28;19920;-93
2021/05/25 13:57:43;;;;;;;;;;;;;;;20.29;46.98;100733.09;5052616;28;19916;-92
2021/05/25 14:01:22;;;;;;;;;;;;;;;20.26;46.23;100739.41;5044995;28;19917;-92
2021/05/25 14:03:54;;;;;;;;;;;;;;;20.29;45.74;100743.38;5038339;28;19917;-92
2021/05/25 14:06:40;;;;;;;;;;;;;;;20.28;44.58;100736.25;5049447;28;19913;-92
2021/05/25 14:09:25;;;;;;;;;;;;;;;20.35;43.92;100731.63;5060103;28;19913;-92
2021/05/25 14:12:11;;;;;;;;;;;;;;;20.37;43.55;100729.25;5032844;28;20298;-92
2021/05/25 14:14:56;;;;;;;;;;;;;;;20.33;42.49;100733.97;5049224;28;20112;-92
2021/05/25 14:17:40;;;;;;;;;;;;;;;20.38;41.18;100747.44;5044097;28;19917;-90
2021/05/25 14:20:26;;;;;;;;;;;;;;;20.43;42.42;100740.75;5055198;28;19913;-93
2021/05/25 14:23:10;;;;;;;;;;;;;;;20.41;42.40;100741.16;5054475;28;19912;-93
2021/05/25 14:25:55;;;;;;;;;;;;;;;20.42;42.31;100745.47;5057953;28;20283;-92
2021/05/25 14:28:40;;;;;;;;;;;;;;;20.32;41.77;100732.38;5046844;28;19912;-92
2021/05/25 14:31:44;;;;;;;;;;;;;;;20.32;41.38;100746.19;5040099;28;19913;-92
2021/05/25 14:34:29;;;;;;;;;;;;;;;20.34;42.69;100752.13;5037992;28;19913;-92
2021/05/25 14:37:14;;;;;;;;;;;;;;;20.33;41.45;100750.53;5054435;28;19917;-92
2021/05/25 14:39:58;;;;;;;;;;;;;;;20.39;41.63;100748.22;5048643;28;19917;-91
2021/05/25 14:42:43;;;;;;;;;;;;;;;20.33;40.21;100749.75;5058714;28;19913;-92
2021/05/25 14:45:27;;;;;;;;;;;;;;;20.27;40.62;100760.31;5046859;28;19912;-92
2021/05/25 14:48:12;;;;;;;;;;;;;;;20.22;38.76;100757.88;5034784;28;19913;-92
2021/05/25 14:50:57;;;;;;;;;;;;;;;20.27;39.70;100756.75;5058000;28;19913;-93
2021/05/25 14:53:47;;;;;;;;;;;;;;;20.25;40.47;100757.16;5043927;28;20296;-92
2021/05/25 14:56:37;;;;;;;;;;;;;;;20.25;37.38;100748.06;5037148;28;19917;-92
2021/05/25 14:59:22;;;;;;;;;;;;;;;20.33;38.03;100756.06;5058081;28;19913;-92
2021/05/25 15:02:18;;;;;;;;;;;;;;;20.29;38.02;100757.16;5056800;28;20326;-92
2021/05/25 15:05:09;;;;;;;;;;;;;;;20.31;38.48;100763.94;5050516;28;19913;-92
2021/05/25 15:07:56;;;;;;;;;;;;;;;20.25;37.15;100759.09;5023101;28;19912;-92
2021/05/25 15:10:41;;;;;;;;;;;;;;;20.26;37.36;100755.97;5044515;28;19921;-93
2021/05/25 15:16:30;;;;;;;;;;;;;;;20.26;36.79;100757.94;5037436;28;20377;-82
2021/05/25 15:19:15;;;;;;;;;;;;;;;20.25;38.43;100751.63;5045369;28;19913;-82
2021/05/25 15:21:59;;;;;;;;;;;;;;;20.31;37.36;100758.44;5075652;28;19913;-81